createdAt,value
2023-05-09T00:00:26.357Z,18.82
2023-05-09T00:02:54.648Z,18.24
2023-05-09T00:05:23.096Z,18.42
2023-05-09T00:07:51.570Z,18.82
2023-05-09T00:10:19.789Z,18.51
2023-05-09T00:12:49.515Z,18.42
2023-05-09T00:15:19.132Z,18.59
2023-05-09T00:17:47.500Z,19.14
2023-05-09T00:20:15.791Z,19.64
2023-05-09T00:22:44.229Z,19.54
2023-05-09T00:25:13.322Z,18.39
2023-05-09T00:27:41.724Z,18.74
2023-05-09T00:30:12.247Z,18.14
2023-05-09T00:32:41.714Z,17.89
2023-05-09T00:35:11.115Z,18.06
2023-05-09T00:37:39.371Z,19.13
2023-05-09T00:40:09.326Z,18.93
2023-05-09T00:42:38.916Z,19.42
2023-05-09T00:45:08.872Z,19.64
2023-05-09T00:47:40.021Z,19.15
2023-05-09T00:50:09.733Z,18.54
2023-05-09T00:52:38.214Z,17.73
2023-05-09T00:55:09.324Z,18.47
2023-05-09T00:57:38.053Z,18.70
2023-05-09T01:00:13.167Z,18.98
2023-05-09T01:02:44.257Z,19.52
2023-05-09T01:05:13.552Z,18.71
2023-05-09T01:07:51.078Z,18.83
2023-05-09T01:10:30.816Z,17.74
2023-05-09T01:13:05.802Z,17.82
2023-05-09T01:15:40.683Z,18.32
2023-05-09T01:18:18.280Z,18.54
2023-05-09T01:20:54.616Z,18.18
2023-05-09T01:23:58.705Z,18.81
2023-05-09T01:26:42.730Z,18.80
2023-05-09T01:29:43.376Z,19.09
2023-05-09T01:32:16.585Z,19.07
2023-05-09T01:34:46.557Z,18.42
2023-05-09T01:37:16.666Z,18.09
2023-05-09T01:39:50.269Z,17.67
2023-05-09T01:42:22.111Z,18.16
2023-05-09T01:44:53.403Z,18.07
2023-05-09T01:47:22.192Z,17.94
2023-05-09T01:49:52.288Z,18.31
2023-05-09T01:52:22.628Z,17.49
2023-05-09T01:54:52.608Z,17.43
2023-05-09T01:57:21.640Z,17.49
2023-05-09T01:59:52.288Z,17.94
2023-05-09T02:02:21.372Z,18.59
2023-05-09T02:04:51.102Z,18.46
2023-05-09T02:07:19.865Z,18.11
2023-05-09T02:09:48.457Z,17.15
2023-05-09T02:12:16.956Z,17.70
2023-05-09T02:14:45.390Z,17.70
2023-05-09T02:17:17.079Z,18.29
2023-05-09T02:19:45.616Z,17.82
2023-05-09T02:22:14.763Z,17.23
2023-05-09T02:24:45.210Z,16.99
2023-05-09T02:27:14.434Z,18.30
2023-05-09T02:29:47.114Z,18.38
2023-05-09T02:32:21.849Z,18.35
2023-05-09T02:34:52.206Z,17.67
2023-05-09T02:37:21.523Z,18.11
2023-05-09T02:39:49.927Z,18.27
2023-05-09T02:42:25.421Z,18.51
2023-05-09T02:44:53.789Z,19.06
2023-05-09T02:47:23.792Z,19.38
2023-05-09T02:49:52.136Z,18.67
2023-05-09T02:52:20.378Z,18.21
2023-05-09T02:54:49.135Z,18.50
2023-05-09T02:57:17.396Z,18.70
2023-05-09T02:59:45.631Z,18.78
2023-05-09T03:02:13.903Z,17.47
2023-05-09T03:04:43.500Z,17.67
2023-05-09T03:07:11.718Z,18.84
2023-05-09T03:09:41.321Z,19.19
2023-05-09T03:12:09.786Z,19.39
2023-05-09T03:14:38.053Z,19.59
2023-05-09T03:17:06.265Z,19.40
2023-05-09T03:19:34.588Z,19.94
2023-05-09T03:22:04.279Z,19.96
2023-05-09T03:24:32.503Z,18.19
2023-05-09T03:27:00.768Z,19.15
2023-05-09T03:29:28.997Z,18.87
2023-05-09T03:31:57.260Z,19.52
2023-05-09T03:34:25.509Z,19.94
2023-05-09T03:36:53.864Z,19.78
2023-05-09T03:39:23.487Z,19.34
2023-05-09T03:41:51.718Z,17.81
2023-05-09T03:44:20.045Z,18.30
2023-05-09T03:46:48.333Z,18.45
2023-05-09T03:49:16.650Z,18.91
2023-05-09T03:51:44.922Z,19.27
2023-05-09T03:54:13.314Z,18.48
2023-05-09T03:56:42.951Z,19.51
2023-05-09T03:59:11.230Z,19.99
2023-05-09T04:01:40.258Z,20.22
2023-05-09T04:04:08.821Z,18.38
2023-05-09T04:06:37.942Z,18.46
2023-05-09T04:09:06.933Z,18.53
2023-05-09T04:11:35.182Z,18.45
2023-05-09T04:14:07.194Z,18.86
2023-05-09T04:16:35.599Z,19.36
2023-05-09T04:19:03.928Z,19.76
2023-05-09T04:21:32.918Z,19.70
2023-05-09T04:24:01.330Z,19.74
2023-05-09T04:26:31.204Z,19.96
2023-05-09T04:28:59.472Z,18.40
2023-05-09T04:31:29.244Z,18.77
2023-05-09T04:33:58.364Z,18.66
2023-05-09T04:36:27.585Z,18.53
2023-05-09T04:38:56.124Z,18.40
2023-05-09T04:41:24.492Z,18.48
2023-05-09T04:43:52.917Z,19.06
2023-05-09T04:46:22.726Z,19.41
2023-05-09T04:48:53.941Z,19.58
2023-05-09T04:51:22.168Z,19.44
2023-05-09T04:53:50.892Z,18.72
2023-05-09T04:56:19.129Z,18.18
2023-05-09T04:58:47.372Z,18.45
2023-05-09T05:01:15.920Z,19.00
2023-05-09T05:03:44.359Z,18.94
2023-05-09T05:06:14.064Z,18.77
2023-05-09T05:08:42.379Z,18.07
2023-05-09T05:11:10.650Z,18.55
2023-05-09T05:13:38.901Z,18.49
2023-05-09T05:16:07.352Z,18.77
2023-05-09T05:18:35.600Z,18.78
2023-05-09T05:21:03.834Z,18.22
2023-05-09T05:23:33.402Z,18.98
2023-05-09T05:26:01.661Z,18.83
2023-05-09T05:28:29.891Z,18.67
2023-05-09T05:30:58.142Z,18.34
2023-05-09T05:33:26.504Z,18.08
2023-05-09T05:35:54.732Z,17.79
2023-05-09T05:38:22.946Z,18.54
2023-05-09T05:40:52.528Z,18.43
2023-05-09T05:43:20.735Z,19.29
2023-05-09T05:45:48.964Z,19.84
2023-05-09T05:48:17.218Z,18.58
2023-05-09T05:50:45.438Z,18.78
2023-05-09T05:53:13.689Z,18.94
2023-05-09T05:55:41.972Z,18.79
2023-05-09T05:58:11.574Z,19.22
2023-05-09T06:00:40.632Z,18.29
2023-05-09T06:03:14.150Z,19.21
2023-05-09T06:05:44.626Z,19.64
2023-05-09T06:08:12.905Z,19.73
2023-05-09T06:10:41.751Z,19.06
2023-05-09T06:13:11.462Z,18.29
2023-05-09T06:15:39.786Z,18.74
2023-05-09T06:18:09.123Z,18.68
2023-05-09T06:20:37.459Z,19.01
2023-05-09T06:23:05.736Z,18.11
2023-05-09T06:25:34.004Z,18.68
2023-05-09T06:28:02.268Z,18.51
2023-05-09T06:30:31.950Z,18.86
2023-05-09T06:33:00.351Z,18.30
2023-05-09T06:35:28.685Z,18.13
2023-05-09T06:37:56.904Z,19.33
2023-05-09T06:40:25.181Z,20.44
2023-05-09T06:42:53.427Z,19.77
2023-05-09T06:45:21.975Z,19.84
2023-05-09T06:47:51.818Z,20.59
2023-05-09T06:50:20.130Z,20.29
2023-05-09T06:52:48.419Z,20.40
2023-05-09T06:55:16.945Z,20.34
2023-05-09T06:57:45.399Z,19.13
2023-05-09T07:00:15.682Z,20.01
2023-05-09T07:02:43.973Z,19.81
2023-05-09T07:05:13.760Z,21.38
2023-05-09T07:07:42.097Z,19.93
2023-05-09T07:10:12.539Z,19.65
2023-05-09T07:12:41.845Z,19.35
2023-05-09T07:15:12.065Z,19.94
2023-05-09T07:17:40.535Z,20.07
2023-05-09T07:20:09.874Z,20.02
2023-05-09T07:22:39.568Z,20.47
2023-05-09T07:25:10.072Z,19.92
2023-05-09T07:27:38.609Z,19.78
2023-05-09T07:30:09.375Z,19.70
2023-05-09T07:32:37.842Z,19.50
2023-05-09T07:35:06.996Z,20.34
2023-05-09T07:37:35.481Z,20.43
2023-05-09T07:40:06.768Z,20.07
2023-05-09T07:42:35.119Z,19.85
2023-05-09T07:45:06.063Z,20.09
2023-05-09T07:47:34.514Z,20.08
2023-05-09T07:50:02.971Z,19.49
2023-05-09T07:52:31.234Z,20.19
2023-05-09T07:54:59.708Z,20.33
2023-05-09T07:57:29.386Z,20.36
2023-05-09T07:59:57.740Z,20.07
2023-05-09T08:02:26.188Z,20.70
2023-05-09T08:04:54.513Z,20.87
2023-05-09T08:07:22.785Z,21.19
2023-05-09T08:09:51.060Z,20.87
2023-05-09T08:12:19.448Z,21.74
2023-05-09T08:14:49.101Z,20.99
2023-05-09T08:17:17.672Z,21.18
2023-05-09T08:19:45.979Z,20.91
2023-05-09T08:22:18.860Z,22.16
2023-05-09T08:24:47.457Z,22.04
2023-05-09T08:27:15.947Z,22.54
2023-05-09T08:29:44.711Z,22.54
2023-05-09T08:32:14.329Z,21.75
2023-05-09T08:34:42.728Z,21.39
2023-05-09T08:37:12.826Z,21.82
2023-05-09T08:39:42.699Z,21.13
2023-05-09T08:42:11.638Z,21.71
2023-05-09T08:44:40.037Z,21.02
2023-05-09T08:47:08.993Z,21.61
2023-05-09T08:49:38.774Z,21.49
2023-05-09T08:52:07.147Z,20.95
2023-05-09T08:54:36.064Z,21.73
2023-05-09T08:57:04.909Z,21.06
2023-05-09T08:59:36.809Z,23.12
2023-05-09T09:02:08.378Z,24.34
2023-05-09T09:04:38.322Z,24.87
2023-05-09T09:07:07.971Z,24.74
2023-05-09T09:09:38.360Z,23.36
2023-05-09T09:12:10.786Z,22.48
2023-05-09T09:14:43.450Z,22.23
2023-05-09T09:17:16.064Z,22.75
2023-05-09T09:19:50.087Z,23.33
2023-05-09T09:22:20.925Z,22.24
2023-05-09T09:24:49.211Z,21.97
2023-05-09T09:27:17.511Z,21.98
2023-05-09T09:29:45.796Z,21.82
2023-05-09T09:32:14.060Z,22.08
2023-05-09T09:34:42.455Z,22.20
2023-05-09T09:37:24.071Z,21.22
2023-05-09T09:39:56.482Z,21.69
2023-05-09T09:42:25.025Z,21.72
2023-05-09T09:44:58.470Z,21.60
2023-05-09T09:47:33.781Z,22.70
2023-05-09T09:50:13.296Z,22.18
2023-05-09T09:52:51.481Z,23.52
2023-05-09T09:55:20.331Z,22.35
2023-05-09T09:57:49.462Z,21.87
2023-05-09T10:00:21.235Z,21.51
2023-05-09T10:02:51.837Z,21.39
2023-05-09T10:05:24.209Z,21.70
2023-05-09T10:07:57.251Z,21.89
2023-05-09T10:10:28.763Z,22.32
2023-05-09T10:12:59.573Z,21.94
2023-05-09T10:15:35.620Z,21.92
2023-05-09T10:18:11.813Z,21.93
2023-05-09T10:20:41.341Z,22.22
2023-05-09T10:23:12.107Z,22.15
2023-05-09T10:25:45.581Z,21.50
2023-05-09T10:28:18.868Z,21.09
2023-05-09T10:30:58.356Z,21.41
2023-05-09T10:33:35.422Z,21.53
2023-05-09T10:36:05.999Z,22.28
2023-05-09T10:38:36.919Z,21.13
2023-05-09T10:41:05.900Z,21.56
2023-05-09T10:43:36.850Z,21.27
2023-05-09T10:46:06.264Z,21.99
2023-05-09T10:48:35.158Z,22.35
2023-05-09T10:51:05.232Z,22.07
2023-05-09T10:53:45.906Z,21.88
2023-05-09T10:56:26.481Z,22.48
2023-05-09T10:58:55.652Z,21.18
2023-05-09T11:01:37.566Z,21.88
2023-05-09T11:04:12.846Z,22.19
2023-05-09T11:06:51.392Z,22.09
2023-05-09T11:09:32.688Z,21.52
2023-05-09T11:12:12.939Z,21.89
2023-05-09T11:14:44.912Z,22.83
2023-05-09T11:17:15.654Z,22.08
2023-05-09T11:20:05.471Z,22.68
2023-05-09T11:22:43.517Z,23.31
2023-05-09T11:25:16.837Z,24.08
2023-05-09T11:27:49.664Z,23.62
2023-05-09T11:30:21.187Z,23.03
2023-05-09T11:32:53.484Z,22.82
2023-05-09T11:35:26.382Z,23.33
2023-05-09T11:38:02.345Z,23.89
2023-05-09T11:40:33.614Z,23.52
2023-05-09T11:43:03.195Z,23.48
2023-05-09T11:45:33.998Z,23.79
2023-05-09T11:48:03.360Z,22.69
2023-05-09T11:50:31.874Z,22.48
2023-05-09T11:53:00.132Z,22.48
2023-05-09T11:55:30.227Z,23.16
2023-05-09T11:58:00.444Z,23.54
2023-05-09T12:00:28.899Z,22.91
2023-05-09T12:02:57.291Z,23.36
2023-05-09T12:05:25.914Z,23.17
2023-05-09T12:07:55.133Z,23.51
2023-05-09T12:10:24.404Z,23.76
2023-05-09T12:12:55.571Z,23.09
2023-05-09T12:15:25.573Z,22.41
2023-05-09T12:18:04.825Z,22.80
2023-05-09T12:20:50.268Z,22.90
2023-05-09T12:23:19.356Z,22.88
2023-05-09T12:25:53.846Z,22.76
2023-05-09T12:28:23.767Z,23.14
2023-05-09T12:30:54.983Z,22.74
2023-05-09T12:33:23.700Z,23.12
2023-05-09T12:36:06.255Z,23.80
2023-05-09T12:38:34.844Z,22.82
2023-05-09T12:41:04.174Z,23.28
2023-05-09T12:43:33.931Z,23.73
2023-05-09T12:46:04.973Z,23.78
2023-05-09T12:48:38.540Z,23.27
2023-05-09T12:51:08.093Z,22.99
2023-05-09T12:53:40.394Z,21.95
2023-05-09T12:56:15.845Z,22.71
2023-05-09T12:58:51.637Z,22.74
2023-05-09T13:01:23.767Z,21.94
2023-05-09T13:04:03.634Z,21.25
2023-05-09T13:06:32.368Z,21.34
2023-05-09T13:09:02.263Z,21.45
2023-05-09T13:11:31.531Z,21.46
2023-05-09T13:14:00.399Z,21.28
2023-05-09T13:16:30.543Z,21.15
2023-05-09T13:18:58.804Z,20.52
2023-05-09T13:21:27.078Z,20.92
2023-05-09T13:23:55.397Z,20.65
2023-05-09T13:26:23.927Z,20.53
2023-05-09T13:28:52.391Z,20.88
2023-05-09T13:31:21.245Z,21.49
2023-05-09T13:33:52.027Z,20.89
2023-05-09T13:36:20.719Z,21.67
2023-05-09T13:38:49.351Z,21.49
2023-05-09T13:41:20.845Z,21.15
2023-05-09T13:43:49.437Z,21.38
2023-05-09T13:46:17.927Z,21.42
2023-05-09T13:48:47.745Z,21.17
2023-05-09T13:51:17.460Z,21.41
2023-05-09T13:53:45.710Z,21.54
2023-05-09T13:56:13.954Z,20.78
2023-05-09T13:58:42.251Z,20.97
2023-05-09T14:01:10.523Z,21.29
2023-05-09T14:03:38.961Z,21.26
2023-05-09T14:06:09.256Z,21.37
2023-05-09T14:08:39.715Z,21.46
2023-05-09T14:11:08.957Z,21.60
2023-05-09T14:13:37.225Z,21.04
2023-05-09T14:16:06.285Z,21.43
2023-05-09T14:18:35.290Z,20.22
2023-05-09T14:21:03.575Z,20.93
2023-05-09T14:23:31.815Z,20.82
2023-05-09T14:26:01.552Z,20.93
2023-05-09T14:28:29.856Z,20.32
2023-05-09T14:30:58.445Z,20.35
2023-05-09T14:33:27.945Z,20.71
2023-05-09T14:35:56.426Z,20.33
2023-05-09T14:38:24.704Z,20.21
2023-05-09T14:40:52.968Z,20.37
2023-05-09T14:43:22.657Z,20.46
2023-05-09T14:45:50.946Z,20.27
2023-05-09T14:48:19.245Z,20.88
2023-05-09T14:50:47.627Z,21.10
2023-05-09T14:53:16.490Z,20.86
2023-05-09T14:55:44.765Z,20.34
2023-05-09T14:58:13.985Z,19.90
2023-05-09T15:00:43.908Z,20.07
2023-05-09T15:03:12.436Z,20.54
2023-05-09T15:05:42.098Z,19.63
2023-05-09T15:08:10.479Z,18.86
2023-05-09T15:10:38.741Z,19.47
2023-05-09T15:13:07.005Z,20.04
2023-05-09T15:15:38.309Z,20.25
2023-05-09T15:18:10.269Z,20.48
2023-05-09T15:20:38.638Z,20.16
2023-05-09T15:23:07.912Z,20.30
2023-05-09T15:25:36.376Z,20.09
2023-05-09T15:28:04.689Z,20.05
2023-05-09T15:30:33.024Z,20.27
2023-05-09T15:33:01.773Z,20.25
2023-05-09T15:35:32.033Z,19.97
2023-05-09T15:38:00.364Z,20.94
2023-05-09T15:40:29.178Z,19.98
2023-05-09T15:42:58.429Z,20.04
2023-05-09T15:45:26.722Z,19.70
2023-05-09T15:47:55.010Z,20.03
2023-05-09T15:50:23.584Z,20.85
2023-05-09T15:52:53.266Z,20.32
2023-05-09T15:55:21.837Z,20.95
2023-05-09T15:57:51.491Z,20.52
2023-05-09T16:00:20.147Z,20.73
2023-05-09T16:02:48.458Z,20.48
2023-05-09T16:05:17.414Z,20.85
2023-05-09T16:07:50.000Z,19.93
2023-05-09T16:10:19.745Z,19.98
2023-05-09T16:12:48.087Z,20.33
2023-05-09T16:15:16.422Z,20.28
2023-05-09T16:17:45.204Z,19.98
2023-05-09T16:20:15.091Z,19.75
2023-05-09T16:22:43.757Z,19.67
2023-05-09T16:25:12.626Z,19.67
2023-05-09T16:27:42.332Z,19.87
2023-05-09T16:30:12.134Z,18.38
2023-05-09T16:32:40.735Z,19.19
2023-05-09T16:35:10.295Z,19.15
2023-05-09T16:37:38.869Z,19.85
2023-05-09T16:40:08.519Z,19.88
2023-05-09T16:42:40.416Z,19.65
2023-05-09T16:45:12.047Z,19.84
2023-05-09T16:47:40.365Z,18.95
2023-05-09T16:50:10.512Z,19.13
2023-05-09T16:52:39.007Z,19.35
2023-05-09T16:55:08.602Z,19.25
2023-05-09T16:57:37.005Z,19.58
2023-05-09T17:00:07.847Z,20.40
2023-05-09T17:02:38.252Z,20.13
2023-05-09T17:05:07.929Z,19.54
2023-05-09T17:07:36.269Z,19.45
2023-05-09T17:10:04.722Z,19.34
2023-05-09T17:12:32.974Z,19.60
2023-05-09T17:15:01.313Z,19.93
2023-05-09T17:17:29.964Z,20.63
2023-05-09T17:20:01.022Z,20.43
2023-05-09T17:22:29.405Z,19.40
2023-05-09T17:24:57.783Z,19.07
2023-05-09T17:27:27.093Z,18.55
2023-05-09T17:29:55.540Z,19.19
2023-05-09T17:32:23.878Z,19.10
2023-05-09T17:34:52.504Z,19.84
2023-05-09T17:37:22.105Z,20.04
2023-05-09T17:39:51.632Z,19.48
2023-05-09T17:42:19.862Z,20.11
2023-05-09T17:44:48.283Z,20.71
2023-05-09T17:47:16.505Z,20.10
2023-05-09T17:49:45.390Z,20.55
2023-05-09T17:52:13.646Z,19.82
2023-05-09T17:54:43.751Z,19.74
2023-05-09T17:57:12.087Z,20.24
2023-05-09T17:59:41.452Z,20.51
2023-05-09T18:02:09.871Z,20.95
2023-05-09T18:04:38.192Z,21.06
2023-05-09T18:07:06.537Z,21.17
2023-05-09T18:09:34.864Z,21.18
2023-05-09T18:12:06.047Z,21.15
2023-05-09T18:14:34.420Z,20.56
2023-05-09T18:17:02.701Z,19.70
2023-05-09T18:19:31.185Z,19.75
2023-05-09T18:21:59.480Z,20.28
2023-05-09T18:24:27.891Z,20.39
2023-05-09T18:26:57.232Z,20.76
2023-05-09T18:29:26.919Z,20.82
2023-05-09T18:34:24.138Z,20.91
2023-05-09T18:36:52.608Z,20.91
2023-05-09T18:39:20.892Z,20.64
2023-05-09T18:41:49.148Z,20.30
2023-05-09T18:44:17.426Z,20.53
2023-05-09T18:46:47.062Z,20.54
2023-05-09T18:49:15.541Z,20.69
2023-05-09T18:51:43.791Z,20.64
2023-05-09T18:54:13.957Z,20.14
2023-05-09T18:56:42.588Z,19.45
2023-05-09T18:59:13.672Z,19.11
2023-05-09T19:01:43.912Z,18.25
2023-05-09T19:04:14.930Z,18.28
2023-05-09T19:06:43.976Z,19.40
2023-05-09T19:09:12.558Z,20.13
2023-05-09T19:11:40.849Z,20.40
2023-05-09T19:14:09.210Z,20.52
2023-05-09T19:16:37.585Z,20.21
2023-05-09T19:19:05.830Z,20.32
2023-05-09T19:21:35.786Z,18.43
2023-05-09T19:24:06.318Z,18.12
2023-05-09T19:26:34.642Z,18.94
2023-05-09T19:29:07.939Z,19.78
2023-05-09T19:31:37.788Z,20.12
2023-05-09T19:34:06.342Z,20.30
2023-05-09T19:36:36.025Z,20.41
2023-05-09T19:39:05.329Z,20.57
2023-05-09T19:41:33.620Z,20.61
2023-05-09T19:44:01.929Z,20.59
2023-05-09T19:46:30.248Z,20.63
2023-05-09T19:48:58.576Z,20.59
2023-05-09T19:51:26.911Z,20.59
2023-05-09T19:53:56.607Z,20.61
2023-05-09T19:56:24.863Z,19.96
2023-05-09T19:58:53.171Z,16.90
2023-05-09T20:01:21.712Z,18.07
2023-05-09T20:03:52.216Z,18.90
2023-05-09T20:06:20.731Z,17.82
2023-05-09T20:08:51.374Z,18.40
2023-05-09T20:11:21.648Z,19.33
2023-05-09T20:13:49.931Z,19.33
2023-05-09T20:16:20.003Z,18.62
2023-05-09T20:18:49.981Z,18.91
2023-05-09T20:21:19.731Z,18.17
2023-05-09T20:23:48.077Z,18.40
2023-05-09T20:26:16.366Z,18.38
2023-05-09T20:28:45.979Z,17.78
2023-05-09T20:31:14.331Z,17.49
2023-05-09T20:33:42.654Z,17.68
2023-05-09T20:36:11.498Z,18.17
2023-05-09T20:38:39.773Z,18.01
2023-05-09T20:41:08.019Z,16.94
2023-05-09T20:43:36.382Z,17.78
2023-05-09T20:46:06.120Z,17.95
2023-05-09T20:48:34.462Z,17.12
2023-05-09T20:51:02.766Z,17.63
2023-05-09T20:53:32.414Z,17.82
2023-05-09T20:56:00.969Z,17.89
2023-05-09T20:58:31.215Z,18.33
2023-05-09T21:00:59.554Z,19.03
2023-05-09T21:03:29.605Z,18.56
2023-05-09T21:05:59.288Z,19.29
2023-05-09T21:08:27.602Z,19.70
2023-05-09T21:10:56.013Z,19.88
2023-05-09T21:13:24.605Z,19.97
2023-05-09T21:15:53.118Z,20.08
2023-05-09T21:18:22.202Z,19.71
2023-05-09T21:20:51.884Z,19.56
2023-05-09T21:23:20.181Z,19.71
2023-05-09T21:25:48.476Z,19.06
2023-05-09T21:28:17.415Z,19.03
2023-05-09T21:30:50.871Z,18.72
2023-05-09T21:33:19.219Z,18.51
2023-05-09T21:35:47.891Z,18.64
2023-05-09T21:38:17.550Z,17.70
2023-05-09T21:40:45.855Z,17.54
2023-05-09T21:43:14.189Z,17.95
2023-05-09T21:45:42.467Z,17.83
2023-05-09T21:48:10.917Z,18.50
2023-05-09T21:50:39.167Z,17.95
2023-05-09T21:53:07.574Z,18.09
2023-05-09T21:55:37.262Z,17.84
2023-05-09T21:58:05.584Z,17.81
2023-05-09T22:00:33.890Z,17.13
2023-05-09T22:03:02.255Z,17.42
2023-05-09T22:05:30.690Z,18.31
2023-05-09T22:07:58.953Z,18.04
2023-05-09T22:10:27.253Z,17.87
2023-05-09T22:12:56.939Z,16.75
2023-05-09T22:15:25.422Z,16.83
2023-05-09T22:17:53.698Z,17.45
2023-05-09T22:20:22.239Z,18.14
2023-05-09T22:22:50.494Z,16.68
2023-05-09T22:25:19.526Z,16.32
2023-05-09T22:27:47.797Z,16.40
2023-05-09T22:30:17.749Z,17.00
2023-05-09T22:32:46.300Z,17.30
2023-05-09T22:35:14.673Z,17.64
2023-05-09T22:37:43.069Z,17.55
2023-05-09T22:40:12.272Z,17.36
2023-05-09T22:42:40.552Z,16.46
2023-05-09T22:45:10.244Z,16.45
2023-05-09T22:47:39.930Z,16.78
2023-05-09T22:50:10.467Z,17.04
2023-05-09T22:52:38.783Z,17.04
2023-05-09T22:55:08.601Z,16.65
2023-05-09T22:57:37.167Z,16.42
2023-05-09T23:00:06.949Z,17.14
2023-05-09T23:02:35.282Z,16.05
2023-05-09T23:05:06.221Z,16.36
2023-05-09T23:07:34.532Z,16.43
2023-05-09T23:10:03.469Z,16.71
2023-05-09T23:12:31.830Z,15.91
2023-05-09T23:15:00.134Z,16.38
2023-05-09T23:17:28.492Z,16.61
2023-05-09T23:19:56.766Z,16.80
2023-05-09T23:22:26.519Z,17.04
2023-05-09T23:24:54.770Z,16.38
2023-05-09T23:27:23.059Z,15.92
2023-05-09T23:29:51.386Z,16.19
2023-05-09T23:32:19.959Z,16.82
2023-05-09T23:34:48.204Z,16.40
2023-05-09T23:37:16.520Z,16.09
2023-05-09T23:39:46.146Z,16.44
2023-05-09T23:42:14.461Z,16.95
2023-05-09T23:44:42.747Z,17.04
2023-05-09T23:47:10.989Z,18.18
2023-05-09T23:49:39.280Z,17.01
2023-05-09T23:52:09.711Z,16.90
2023-05-09T23:54:38.699Z,17.23
2023-05-09T23:57:08.379Z,16.28
2023-05-09T23:59:36.733Z,15.10
